sensor_id;sensor_type;location;lat;lon;timestamp;pressure;altitude;pressure_sealevel;temperature;humidity
44351;BME280;62766;62.622;17.912;2022-12-18T00:00:26;101076.45;;;-4.71;60.57
44351;BME280;62766;62.622;17.912;2022-12-18T00:02:55;101083.28;;;-4.77;60.51
44351;BME280;62766;62.622;17.912;2022-12-18T00:05:24;101082.12;;;-4.70;60.33
44351;BME280;62766;62.622;17.912;2022-12-18T00:07:53;101074.48;;;-4.71;60.39
44351;BME280;62766;62.622;17.912;2022-12-18T00:10:21;101075.67;;;-4.57;60.48
44351;BME280;62766;62.622;17.912;2022-12-18T00:12:50;101075.80;;;-4.63;60.28
44351;BME280;62766;62.622;17.912;2022-12-18T00:15:19;101065.95;;;-4.55;60.18
44351;BME280;62766;62.622;17.912;2022-12-18T00:17:47;101056.85;;;-4.59;60.37
44351;BME280;62766;62.622;17.912;2022-12-18T00:20:15;101056.60;;;-4.64;60.62
44351;BME280;62766;62.622;17.912;2022-12-18T00:22:44;101054.56;;;-4.77;60.93
44351;BME280;62766;62.622;17.912;2022-12-18T00:25:12;101051.96;;;-4.81;61.17
44351;BME280;62766;62.622;17.912;2022-12-18T00:27:41;101051.49;;;-4.73;61.74
44351;BME280;62766;62.622;17.912;2022-12-18T00:30:11;101054.52;;;-4.71;61.80
44351;BME280;62766;62.622;17.912;2022-12-18T00:32:39;101051.43;;;-4.72;61.60
44351;BME280;62766;62.622;17.912;2022-12-18T00:35:08;101049.59;;;-4.66;61.21
44351;BME280;62766;62.622;17.912;2022-12-18T00:37:37;101049.47;;;-4.62;60.97
44351;BME280;62766;62.622;17.912;2022-12-18T00:40:07;101044.48;;;-4.70;61.01
44351;BME280;62766;62.622;17.912;2022-12-18T00:42:37;101044.51;;;-4.77;61.07
44351;BME280;62766;62.622;17.912;2022-12-18T00:45:06;101040.63;;;-4.63;60.93
44351;BME280;62766;62.622;17.912;2022-12-18T00:47:35;101039.86;;;-4.54;60.90
44351;BME280;62766;62.622;17.912;2022-12-18T00:50:06;101035.41;;;-4.44;61.01
44351;BME280;62766;62.622;17.912;2022-12-18T00:52:36;101027.70;;;-4.44;61.15
44351;BME280;62766;62.622;17.912;2022-12-18T00:55:05;101024.91;;;-4.47;61.18
44351;BME280;62766;62.622;17.912;2022-12-18T00:57:36;101027.39;;;-4.26;60.90
44351;BME280;62766;62.622;17.912;2022-12-18T01:00:07;101026.04;;;-4.30;60.71
44351;BME280;62766;62.622;17.912;2022-12-18T01:02:39;101024.54;;;-4.19;60.36
44351;BME280;62766;62.622;17.912;2022-12-18T01:05:10;101023.36;;;-4.22;60.42
44351;BME280;62766;62.622;17.912;2022-12-18T01:07:38;101018.10;;;-4.31;60.51
44351;BME280;62766;62.622;17.912;2022-12-18T01:10:09;101022.29;;;-4.08;60.72
44351;BME280;62766;62.622;17.912;2022-12-18T01:12:37;101018.15;;;-4.10;60.80
44351;BME280;62766;62.622;17.912;2022-12-18T01:15:08;101018.28;;;-4.14;60.99
44351;BME280;62766;62.622;17.912;2022-12-18T01:17:37;101016.29;;;-4.29;60.97
44351;BME280;62766;62.622;17.912;2022-12-18T01:20:06;101014.55;;;-4.13;60.93
44351;BME280;62766;62.622;17.912;2022-12-18T01:22:36;101013.02;;;-4.16;60.80
44351;BME280;62766;62.622;17.912;2022-12-18T01:25:07;101008.73;;;-3.96;60.59
44351;BME280;62766;62.622;17.912;2022-12-18T01:27:37;101011.24;;;-3.90;60.26
44351;BME280;62766;62.622;17.912;2022-12-18T01:30:07;101009.97;;;-3.97;60.13
44351;BME280;62766;62.622;17.912;2022-12-18T01:32:37;101007.30;;;-3.81;60.15
44351;BME280;62766;62.622;17.912;2022-12-18T01:35:06;101002.03;;;-3.88;60.07
44351;BME280;62766;62.622;17.912;2022-12-18T01:37:36;101001.31;;;-3.90;59.93
44351;BME280;62766;62.622;17.912;2022-12-18T01:40:07;100995.98;;;-3.88;60.01
44351;BME280;62766;62.622;17.912;2022-12-18T01:42:37;100993.24;;;-3.77;60.07
44351;BME280;62766;62.622;17.912;2022-12-18T01:45:21;100992.87;;;-3.81;60.12
44351;BME280;62766;62.622;17.912;2022-12-18T01:47:53;100991.51;;;-3.65;60.06
44351;BME280;62766;62.622;17.912;2022-12-18T01:50:24;100989.89;;;-3.84;60.14
44351;BME280;62766;62.622;17.912;2022-12-18T01:52:56;100992.19;;;-3.95;60.31
44351;BME280;62766;62.622;17.912;2022-12-18T01:55:30;100993.39;;;-3.85;60.17
44351;BME280;62766;62.622;17.912;2022-12-18T01:58:00;100985.86;;;-3.80;60.09
44351;BME280;62766;62.622;17.912;2022-12-18T02:00:29;100981.59;;;-3.81;60.04
44351;BME280;62766;62.622;17.912;2022-12-18T02:02:58;100982.28;;;-3.68;59.87
44351;BME280;62766;62.622;17.912;2022-12-18T02:05:36;100977.91;;;-3.85;60.04
44351;BME280;62766;62.622;17.912;2022-12-18T02:08:10;100984.63;;;-3.77;59.92
44351;BME280;62766;62.622;17.912;2022-12-18T02:10:47;100986.84;;;-3.82;60.10
44351;BME280;62766;62.622;17.912;2022-12-18T02:13:21;100991.20;;;-3.75;60.06
44351;BME280;62766;62.622;17.912;2022-12-18T02:16:01;100979.99;;;-3.73;59.97
44351;BME280;62766;62.622;17.912;2022-12-18T02:18:39;100975.41;;;-3.68;59.97
44351;BME280;62766;62.622;17.912;2022-12-18T02:21:16;100969.10;;;-3.64;60.02
44351;BME280;62766;62.622;17.912;2022-12-18T02:23:56;100967.32;;;-3.73;59.96
44351;BME280;62766;62.622;17.912;2022-12-18T02:26:27;100974.93;;;-3.68;60.14
44351;BME280;62766;62.622;17.912;2022-12-18T02:29:02;100973.01;;;-3.63;60.27
44351;BME280;62766;62.622;17.912;2022-12-18T02:31:38;100970.24;;;-3.74;60.39
44351;BME280;62766;62.622;17.912;2022-12-18T02:34:09;100967.71;;;-3.90;60.58
44351;BME280;62766;62.622;17.912;2022-12-18T02:36:40;100963.61;;;-3.91;60.95
44351;BME280;62766;62.622;17.912;2022-12-18T02:39:11;100959.94;;;-3.89;61.19
44351;BME280;62766;62.622;17.912;2022-12-18T02:41:41;100957.46;;;-4.03;61.24
44351;BME280;62766;62.622;17.912;2022-12-18T02:44:11;100961.72;;;-3.86;61.12
44351;BME280;62766;62.622;17.912;2022-12-18T02:46:43;100959.12;;;-3.81;60.97
44351;BME280;62766;62.622;17.912;2022-12-18T02:49:24;100951.12;;;-3.59;60.63
44351;BME280;62766;62.622;17.912;2022-12-18T02:51:58;100945.55;;;-3.63;60.64
44351;BME280;62766;62.622;17.912;2022-12-18T02:54:38;100937.16;;;-3.70;60.64
44351;BME280;62766;62.622;17.912;2022-12-18T02:57:14;100937.63;;;-3.66;60.52
44351;BME280;62766;62.622;17.912;2022-12-18T02:59:53;100930.81;;;-3.71;60.63
44351;BME280;62766;62.622;17.912;2022-12-18T03:02:29;100926.95;;;-3.87;60.53
44351;BME280;62766;62.622;17.912;2022-12-18T03:05:07;100921.98;;;-3.76;60.61
44351;BME280;62766;62.622;17.912;2022-12-18T03:07:45;100917.29;;;-3.74;60.63
44351;BME280;62766;62.622;17.912;2022-12-18T03:10:18;100910.07;;;-3.73;60.78
44351;BME280;62766;62.622;17.912;2022-12-18T03:12:52;100902.22;;;-3.73;60.84
44351;BME280;62766;62.622;17.912;2022-12-18T03:15:26;100900.25;;;-3.66;60.85
44351;BME280;62766;62.622;17.912;2022-12-18T03:17:59;100898.17;;;-3.60;60.92
44351;BME280;62766;62.622;17.912;2022-12-18T03:20:31;100887.82;;;-3.51;61.07
44351;BME280;62766;62.622;17.912;2022-12-18T03:23:06;100886.06;;;-3.45;61.21
44351;BME280;62766;62.622;17.912;2022-12-18T03:25:39;100883.90;;;-3.40;61.31
44351;BME280;62766;62.622;17.912;2022-12-18T03:28:12;100883.92;;;-3.38;61.20
44351;BME280;62766;62.622;17.912;2022-12-18T03:30:44;100883.81;;;-3.53;60.97
44351;BME280;62766;62.622;17.912;2022-12-18T03:33:17;100876.31;;;-3.51;61.01
44351;BME280;62766;62.622;17.912;2022-12-18T03:35:47;100866.17;;;-3.32;61.04
44351;BME280;62766;62.622;17.912;2022-12-18T03:38:16;100869.03;;;-3.42;61.17
44351;BME280;62766;62.622;17.912;2022-12-18T03:40:53;100862.30;;;-3.38;61.20
44351;BME280;62766;62.622;17.912;2022-12-18T03:43:34;100862.86;;;-3.43;61.36
44351;BME280;62766;62.622;17.912;2022-12-18T03:46:07;100862.45;;;-3.33;61.50
44351;BME280;62766;62.622;17.912;2022-12-18T03:48:41;100854.70;;;-3.29;61.44
44351;BME280;62766;62.622;17.912;2022-12-18T03:51:15;100850.09;;;-3.08;61.19
44351;BME280;62766;62.622;17.912;2022-12-18T03:53:49;100845.81;;;-3.13;60.97
44351;BME280;62766;62.622;17.912;2022-12-18T03:56:22;100845.77;;;-3.22;60.79
44351;BME280;62766;62.622;17.912;2022-12-18T03:58:53;100849.97;;;-3.11;60.62
44351;BME280;62766;62.622;17.912;2022-12-18T04:01:28;100846.01;;;-3.05;60.21
44351;BME280;62766;62.622;17.912;2022-12-18T04:04:00;100844.73;;;-3.18;60.31
44351;BME280;62766;62.622;17.912;2022-12-18T04:06:30;100841.70;;;-3.19;60.39
44351;BME280;62766;62.622;17.912;2022-12-18T04:09:00;100837.52;;;-3.14;60.52
44351;BME280;62766;62.622;17.912;2022-12-18T04:11:28;100836.76;;;-3.18;60.66
44351;BME280;62766;62.622;17.912;2022-12-18T04:13:58;100829.57;;;-3.25;60.80
44351;BME280;62766;62.622;17.912;2022-12-18T04:16:27;100830.19;;;-3.20;61.06
44351;BME280;62766;62.622;17.912;2022-12-18T04:18:56;100826.77;;;-3.33;61.05
44351;BME280;62766;62.622;17.912;2022-12-18T04:21:25;100826.40;;;-3.32;61.30
44351;BME280;62766;62.622;17.912;2022-12-18T04:23:54;100821.60;;;-3.52;61.73
44351;BME280;62766;62.622;17.912;2022-12-18T04:26:22;100818.39;;;-3.47;62.00
44351;BME280;62766;62.622;17.912;2022-12-18T04:28:50;100817.15;;;-3.38;62.20
44351;BME280;62766;62.622;17.912;2022-12-18T04:31:19;100814.65;;;-3.31;62.10
44351;BME280;62766;62.622;17.912;2022-12-18T04:33:48;100806.91;;;-3.42;62.22
44351;BME280;62766;62.622;17.912;2022-12-18T04:36:15;100805.01;;;-3.37;62.43
44351;BME280;62766;62.622;17.912;2022-12-18T04:38:43;100799.18;;;-3.32;62.57
44351;BME280;62766;62.622;17.912;2022-12-18T04:41:12;100795.77;;;-3.28;62.84
44351;BME280;62766;62.622;17.912;2022-12-18T04:43:42;100792.97;;;-3.13;63.13
44351;BME280;62766;62.622;17.912;2022-12-18T04:46:11;100789.09;;;-3.09;63.13
44351;BME280;62766;62.622;17.912;2022-12-18T04:48:40;100788.12;;;-3.13;62.89
44351;BME280;62766;62.622;17.912;2022-12-18T04:51:08;100781.71;;;-3.38;63.43
44351;BME280;62766;62.622;17.912;2022-12-18T04:53:37;100778.21;;;-3.31;63.68
44351;BME280;62766;62.622;17.912;2022-12-18T04:56:07;100772.85;;;-3.14;63.59
44351;BME280;62766;62.622;17.912;2022-12-18T04:58:38;100768.18;;;-3.17;63.19
44351;BME280;62766;62.622;17.912;2022-12-18T05:03:37;100759.80;;;-3.46;62.93
44351;BME280;62766;62.622;17.912;2022-12-18T05:06:06;100753.39;;;-3.30;62.90
44351;BME280;62766;62.622;17.912;2022-12-18T05:08:34;100745.41;;;-3.40;62.87
44351;BME280;62766;62.622;17.912;2022-12-18T05:11:06;100742.10;;;-3.24;62.70
44351;BME280;62766;62.622;17.912;2022-12-18T05:13:36;100744.54;;;-3.15;62.45
44351;BME280;62766;62.622;17.912;2022-12-18T05:16:06;100744.59;;;-3.23;62.47
44351;BME280;62766;62.622;17.912;2022-12-18T05:18:36;100741.28;;;-3.27;62.85
44351;BME280;62766;62.622;17.912;2022-12-18T05:21:05;100739.51;;;-3.33;63.20
44351;BME280;62766;62.622;17.912;2022-12-18T05:23:34;100738.31;;;-3.29;63.94
44351;BME280;62766;62.622;17.912;2022-12-18T05:26:05;100732.49;;;-3.22;65.83
44351;BME280;62766;62.622;17.912;2022-12-18T05:28:35;100735.99;;;-3.15;65.51
44351;BME280;62766;62.622;17.912;2022-12-18T05:31:04;100741.28;;;-3.02;65.36
44351;BME280;62766;62.622;17.912;2022-12-18T05:33:33;100743.17;;;-3.07;65.34
44351;BME280;62766;62.622;17.912;2022-12-18T05:36:04;100738.93;;;-2.84;65.26
44351;BME280;62766;62.622;17.912;2022-12-18T05:38:35;100732.74;;;-2.79;65.19
44351;BME280;62766;62.622;17.912;2022-12-18T05:41:05;100721.52;;;-2.66;65.05
44351;BME280;62766;62.622;17.912;2022-12-18T05:43:36;100720.10;;;-2.69;65.12
44351;BME280;62766;62.622;17.912;2022-12-18T05:46:05;100715.45;;;-2.62;65.23
44351;BME280;62766;62.622;17.912;2022-12-18T05:48:34;100715.08;;;-2.61;65.12
44351;BME280;62766;62.622;17.912;2022-12-18T05:51:06;100712.10;;;-2.42;65.10
44351;BME280;62766;62.622;17.912;2022-12-18T05:53:37;100713.51;;;-2.36;65.06
44351;BME280;62766;62.622;17.912;2022-12-18T05:56:08;100708.72;;;-2.30;65.02
44351;BME280;62766;62.622;17.912;2022-12-18T05:58:38;100706.21;;;-2.28;65.26
44351;BME280;62766;62.622;17.912;2022-12-18T06:01:10;100702.85;;;-2.29;65.53
44351;BME280;62766;62.622;17.912;2022-12-18T06:03:39;100695.30;;;-2.26;66.10
44351;BME280;62766;62.622;17.912;2022-12-18T06:06:14;100701.27;;;-2.33;66.15
44351;BME280;62766;62.622;17.912;2022-12-18T06:08:43;100702.39;;;-2.23;66.25
44351;BME280;62766;62.622;17.912;2022-12-18T06:11:12;100700.00;;;-2.30;66.54
44351;BME280;62766;62.622;17.912;2022-12-18T06:13:41;100698.19;;;-2.17;67.01
44351;BME280;62766;62.622;17.912;2022-12-18T06:16:09;100695.14;;;-2.17;67.42
44351;BME280;62766;62.622;17.912;2022-12-18T06:18:38;100690.64;;;-2.00;67.82
44351;BME280;62766;62.622;17.912;2022-12-18T06:21:07;100684.55;;;-2.02;68.73
44351;BME280;62766;62.622;17.912;2022-12-18T06:23:35;100682.17;;;-2.03;69.67
44351;BME280;62766;62.622;17.912;2022-12-18T06:26:07;100679.34;;;-1.88;71.62
44351;BME280;62766;62.622;17.912;2022-12-18T06:28:37;100681.84;;;-1.88;73.45
44351;BME280;62766;62.622;17.912;2022-12-18T06:31:07;100684.42;;;-1.72;74.53
44351;BME280;62766;62.622;17.912;2022-12-18T06:33:37;100688.13;;;-1.57;76.19
44351;BME280;62766;62.622;17.912;2022-12-18T06:36:09;100684.00;;;-1.35;78.12
44351;BME280;62766;62.622;17.912;2022-12-18T06:38:41;100676.56;;;-1.11;79.31
44351;BME280;62766;62.622;17.912;2022-12-18T06:41:11;100676.27;;;-0.93;80.06
44351;BME280;62766;62.622;17.912;2022-12-18T06:43:41;100673.56;;;-0.71;80.70
44351;BME280;62766;62.622;17.912;2022-12-18T06:46:10;100673.69;;;-0.60;81.41
44351;BME280;62766;62.622;17.912;2022-12-18T06:48:38;100668.73;;;-0.49;82.23
44351;BME280;62766;62.622;17.912;2022-12-18T06:51:07;100665.12;;;-0.40;82.22
44351;BME280;62766;62.622;17.912;2022-12-18T06:53:36;100659.82;;;-0.29;82.39
44351;BME280;62766;62.622;17.912;2022-12-18T06:56:06;100665.23;;;-0.30;82.74
44351;BME280;62766;62.622;17.912;2022-12-18T06:58:36;100660.07;;;-0.23;82.90
44351;BME280;62766;62.622;17.912;2022-12-18T07:01:06;100659.39;;;-0.25;82.99
44351;BME280;62766;62.622;17.912;2022-12-18T07:03:35;100659.53;;;-0.13;83.08
44351;BME280;62766;62.622;17.912;2022-12-18T07:06:04;100657.39;;;0.04;83.29
44351;BME280;62766;62.622;17.912;2022-12-18T07:08:33;100652.87;;;0.11;84.04
44351;BME280;62766;62.622;17.912;2022-12-18T07:11:03;100652.11;;;0.15;84.18
44351;BME280;62766;62.622;17.912;2022-12-18T07:13:32;100646.70;;;0.37;83.97
44351;BME280;62766;62.622;17.912;2022-12-18T07:16:06;100643.64;;;0.22;83.90
44351;BME280;62766;62.622;17.912;2022-12-18T07:18:34;100640.05;;;0.27;84.00
44351;BME280;62766;62.622;17.912;2022-12-18T07:21:04;100638.70;;;0.27;84.17
44351;BME280;62766;62.622;17.912;2022-12-18T07:23:33;100636.61;;;0.31;83.97
44351;BME280;62766;62.622;17.912;2022-12-18T07:26:03;100637.07;;;0.37;83.82
44351;BME280;62766;62.622;17.912;2022-12-18T07:28:34;100635.22;;;0.42;84.01
44351;BME280;62766;62.622;17.912;2022-12-18T07:31:03;100635.82;;;0.44;84.15
44351;BME280;62766;62.622;17.912;2022-12-18T07:33:31;100624.74;;;0.46;83.78
44351;BME280;62766;62.622;17.912;2022-12-18T07:36:01;100626.14;;;0.41;83.75
44351;BME280;62766;62.622;17.912;2022-12-18T07:38:29;100627.24;;;0.57;83.83
44351;BME280;62766;62.622;17.912;2022-12-18T07:41:00;100619.41;;;0.57;83.60
44351;BME280;62766;62.622;17.912;2022-12-18T07:43:28;100619.46;;;0.70;83.75
44351;BME280;62766;62.622;17.912;2022-12-18T07:45:56;100616.01;;;0.53;83.62
44351;BME280;62766;62.622;17.912;2022-12-18T07:48:25;100617.56;;;0.66;83.43
44351;BME280;62766;62.622;17.912;2022-12-18T07:50:53;100612.28;;;0.67;83.23
44351;BME280;62766;62.622;17.912;2022-12-18T07:53:22;100616.69;;;0.63;83.64
44351;BME280;62766;62.622;17.912;2022-12-18T07:55:55;100619.30;;;0.56;83.41
44351;BME280;62766;62.622;17.912;2022-12-18T07:58:23;100614.99;;;0.69;83.30
44351;BME280;62766;62.622;17.912;2022-12-18T08:00:52;100618.72;;;0.70;83.20
44351;BME280;62766;62.622;17.912;2022-12-18T08:03:21;100612.89;;;0.82;82.98
44351;BME280;62766;62.622;17.912;2022-12-18T08:05:50;100611.73;;;0.64;82.98
44351;BME280;62766;62.622;17.912;2022-12-18T08:08:18;100611.09;;;0.80;82.85
44351;BME280;62766;62.622;17.912;2022-12-18T08:10:47;100610.96;;;0.84;82.53
44351;BME280;62766;62.622;17.912;2022-12-18T08:13:15;100605.85;;;0.83;82.82
44351;BME280;62766;62.622;17.912;2022-12-18T08:15:44;100598.54;;;0.90;82.69
44351;BME280;62766;62.622;17.912;2022-12-18T08:18:13;100587.41;;;0.78;82.51
44351;BME280;62766;62.622;17.912;2022-12-18T08:20:41;100592.55;;;0.99;82.46
44351;BME280;62766;62.622;17.912;2022-12-18T08:23:10;100587.99;;;0.91;82.23
44351;BME280;62766;62.622;17.912;2022-12-18T08:25:39;100588.25;;;0.85;82.03
44351;BME280;62766;62.622;17.912;2022-12-18T08:28:07;100581.15;;;0.91;82.04
44351;BME280;62766;62.622;17.912;2022-12-18T08:30:35;100577.59;;;1.04;81.95
44351;BME280;62766;62.622;17.912;2022-12-18T08:33:04;100580.46;;;1.05;81.76
44351;BME280;62766;62.622;17.912;2022-12-18T08:35:35;100578.97;;;1.04;81.61
44351;BME280;62766;62.622;17.912;2022-12-18T08:38:04;100579.52;;;1.07;81.58
44351;BME280;62766;62.622;17.912;2022-12-18T08:40:33;100576.71;;;0.95;81.76
44351;BME280;62766;62.622;17.912;2022-12-18T08:43:01;100569.72;;;0.94;82.01
44351;BME280;62766;62.622;17.912;2022-12-18T08:45:30;100563.11;;;1.10;81.84
44351;BME280;62766;62.622;17.912;2022-12-18T08:47:59;100562.77;;;0.91;81.70
44351;BME280;62766;62.622;17.912;2022-12-18T08:50:27;100566.00;;;0.89;81.85
44351;BME280;62766;62.622;17.912;2022-12-18T08:52:56;100568.46;;;0.94;81.78
44351;BME280;62766;62.622;17.912;2022-12-18T08:55:24;100562.16;;;0.99;81.80
44351;BME280;62766;62.622;17.912;2022-12-18T08:57:53;100562.53;;;0.96;81.51
44351;BME280;62766;62.622;17.912;2022-12-18T09:00:22;100559.81;;;1.02;81.63
44351;BME280;62766;62.622;17.912;2022-12-18T09:02:52;100553.90;;;0.98;81.65
44351;BME280;62766;62.622;17.912;2022-12-18T09:05:21;100547.98;;;0.88;81.53
44351;BME280;62766;62.622;17.912;2022-12-18T09:07:51;100547.21;;;1.13;81.36
44351;BME280;62766;62.622;17.912;2022-12-18T09:10:20;100545.77;;;1.09;81.22
44351;BME280;62766;62.622;17.912;2022-12-18T09:12:49;100533.17;;;1.26;81.15
44351;BME280;62766;62.622;17.912;2022-12-18T09:15:18;100535.61;;;1.19;81.03
44351;BME280;62766;62.622;17.912;2022-12-18T09:17:47;100533.33;;;1.17;80.95
44351;BME280;62766;62.622;17.912;2022-12-18T09:20:15;100530.37;;;1.18;81.15
44351;BME280;62766;62.622;17.912;2022-12-18T09:22:44;100528.89;;;1.33;81.06
44351;BME280;62766;62.622;17.912;2022-12-18T09:25:13;100523.05;;;1.10;81.24
44351;BME280;62766;62.622;17.912;2022-12-18T09:27:42;100526.34;;;1.06;81.48
44351;BME280;62766;62.622;17.912;2022-12-18T09:30:10;100522.91;;;1.02;81.81
44351;BME280;62766;62.622;17.912;2022-12-18T09:32:39;100526.50;;;1.15;81.87
44351;BME280;62766;62.622;17.912;2022-12-18T09:35:07;100521.74;;;1.16;81.70
44351;BME280;62766;62.622;17.912;2022-12-18T09:37:36;100523.93;;;1.06;81.87
44351;BME280;62766;62.622;17.912;2022-12-18T09:40:06;100519.80;;;1.10;81.83
44351;BME280;62766;62.622;17.912;2022-12-18T09:42:35;100524.84;;;1.07;81.80
44351;BME280;62766;62.622;17.912;2022-12-18T09:45:04;100520.57;;;1.20;81.76
44351;BME280;62766;62.622;17.912;2022-12-18T09:47:36;100525.13;;;1.10;81.85
44351;BME280;62766;62.622;17.912;2022-12-18T09:50:29;100529.71;;;1.15;81.76
44351;BME280;62766;62.622;17.912;2022-12-18T09:53:05;100524.86;;;1.20;81.53
44351;BME280;62766;62.622;17.912;2022-12-18T09:55:37;100523.77;;;1.20;81.59
44351;BME280;62766;62.622;17.912;2022-12-18T09:58:11;100522.95;;;1.25;81.55
44351;BME280;62766;62.622;17.912;2022-12-18T10:00:41;100521.54;;;1.29;81.78
44351;BME280;62766;62.622;17.912;2022-12-18T10:03:11;100518.27;;;1.29;81.47
44351;BME280;62766;62.622;17.912;2022-12-18T10:05:46;100505.42;;;1.20;81.45
44351;BME280;62766;62.622;17.912;2022-12-18T10:08:21;100507.54;;;1.16;81.65
44351;BME280;62766;62.622;17.912;2022-12-18T10:10:56;100503.53;;;1.33;81.52
44351;BME280;62766;62.622;17.912;2022-12-18T10:13:31;100500.95;;;1.29;81.48
44351;BME280;62766;62.622;17.912;2022-12-18T10:16:09;100501.19;;;1.25;81.58
44351;BME280;62766;62.622;17.912;2022-12-18T10:18:56;100496.90;;;1.32;81.56
44351;BME280;62766;62.622;17.912;2022-12-18T10:21:33;100501.93;;;1.33;81.48
44351;BME280;62766;62.622;17.912;2022-12-18T10:24:14;100495.53;;;1.32;81.41
44351;BME280;62766;62.622;17.912;2022-12-18T10:26:46;100499.45;;;1.28;81.39
44351;BME280;62766;62.622;17.912;2022-12-18T10:29:16;100492.51;;;1.22;81.30
44351;BME280;62766;62.622;17.912;2022-12-18T10:31:44;100489.82;;;1.30;81.24
44351;BME280;62766;62.622;17.912;2022-12-18T10:34:13;100488.77;;;1.17;81.16
44351;BME280;62766;62.622;17.912;2022-12-18T10:36:47;100476.35;;;1.22;81.10
44351;BME280;62766;62.622;17.912;2022-12-18T10:39:17;100477.06;;;1.36;80.89
44351;BME280;62766;62.622;17.912;2022-12-18T10:41:45;100478.07;;;1.25;80.95
44351;BME280;62766;62.622;17.912;2022-12-18T10:44:18;100464.24;;;1.28;80.95
44351;BME280;62766;62.622;17.912;2022-12-18T10:46:49;100458.38;;;1.31;80.84
44351;BME280;62766;62.622;17.912;2022-12-18T10:49:22;100458.01;;;1.37;80.79
44351;BME280;62766;62.622;17.912;2022-12-18T10:52:04;100464.06;;;1.30;80.64
44351;BME280;62766;62.622;17.912;2022-12-18T10:54:34;100460.06;;;1.43;80.50
44351;BME280;62766;62.622;17.912;2022-12-18T10:57:15;100450.77;;;1.25;80.21
44351;BME280;62766;62.622;17.912;2022-12-18T10:59:51;100451.32;;;1.40;80.18
44351;BME280;62766;62.622;17.912;2022-12-18T11:03:30;100461.83;;;1.11;80.54
44351;BME280;62766;62.622;17.912;2022-12-18T11:06:03;100469.28;;;1.18;80.82
44351;BME280;62766;62.622;17.912;2022-12-18T11:08:31;100471.25;;;1.30;80.90
44351;BME280;62766;62.622;17.912;2022-12-18T11:11:00;100469.10;;;1.25;80.81
44351;BME280;62766;62.622;17.912;2022-12-18T11:13:30;100465.83;;;1.33;80.71
44351;BME280;62766;62.622;17.912;2022-12-18T11:15:59;100464.96;;;1.36;80.65
44351;BME280;62766;62.622;17.912;2022-12-18T11:18:30;100459.38;;;1.24;80.56
44351;BME280;62766;62.622;17.912;2022-12-18T11:21:06;100464.30;;;1.26;80.53
44351;BME280;62766;62.622;17.912;2022-12-18T11:23:37;100462.13;;;1.20;80.45
44351;BME280;62766;62.622;17.912;2022-12-18T11:26:13;100457.42;;;1.38;80.29
44351;BME280;62766;62.622;17.912;2022-12-18T11:28:44;100457.44;;;1.41;80.19
44351;BME280;62766;62.622;17.912;2022-12-18T11:31:24;100458.10;;;1.41;79.91
44351;BME280;62766;62.622;17.912;2022-12-18T11:33:58;100454.56;;;1.28;79.83
44351;BME280;62766;62.622;17.912;2022-12-18T11:36:32;100461.16;;;1.45;79.59
44351;BME280;62766;62.622;17.912;2022-12-18T11:39:07;100469.97;;;1.41;79.46
44351;BME280;62766;62.622;17.912;2022-12-18T11:41:47;100472.03;;;1.40;79.40
44351;BME280;62766;62.622;17.912;2022-12-18T11:44:26;100468.14;;;1.33;79.21
44351;BME280;62766;62.622;17.912;2022-12-18T11:47:01;100472.10;;;1.36;79.23
44351;BME280;62766;62.622;17.912;2022-12-18T11:49:34;100469.85;;;1.26;79.38
44351;BME280;62766;62.622;17.912;2022-12-18T11:52:07;100462.43;;;1.31;79.34
44351;BME280;62766;62.622;17.912;2022-12-18T11:54:38;100463.92;;;1.26;79.21
44351;BME280;62766;62.622;17.912;2022-12-18T11:57:21;100468.29;;;1.27;78.94
44351;BME280;62766;62.622;17.912;2022-12-18T12:00:02;100469.49;;;1.27;78.95
44351;BME280;62766;62.622;17.912;2022-12-18T12:02:42;100469.39;;;1.30;78.70
44351;BME280;62766;62.622;17.912;2022-12-18T12:05:25;100473.83;;;1.42;78.59
44351;BME280;62766;62.622;17.912;2022-12-18T12:07:59;100480.01;;;1.40;78.44
44351;BME280;62766;62.622;17.912;2022-12-18T12:10:39;100483.71;;;1.46;78.08
44351;BME280;62766;62.622;17.912;2022-12-18T12:13:21;100476.35;;;1.62;77.74
44351;BME280;62766;62.622;17.912;2022-12-18T12:16:02;100473.14;;;1.61;77.31
44351;BME280;62766;62.622;17.912;2022-12-18T12:18:41;100475.32;;;1.88;76.96
44351;BME280;62766;62.622;17.912;2022-12-18T12:21:20;100481.44;;;1.90;75.93
44351;BME280;62766;62.622;17.912;2022-12-18T12:23:55;100486.75;;;1.83;75.60
44351;BME280;62766;62.622;17.912;2022-12-18T12:26:33;100483.98;;;2.01;74.83
44351;BME280;62766;62.622;17.912;2022-12-18T12:29:18;100487.56;;;2.07;74.37
44351;BME280;62766;62.622;17.912;2022-12-18T12:32:00;100483.62;;;2.20;73.91
44351;BME280;62766;62.622;17.912;2022-12-18T12:34:43;100480.85;;;2.10;73.60
44351;BME280;62766;62.622;17.912;2022-12-18T12:37:28;100482.21;;;2.00;73.40
44351;BME280;62766;62.622;17.912;2022-12-18T12:39:59;100488.76;;;2.21;73.02
44351;BME280;62766;62.622;17.912;2022-12-18T12:42:32;100488.10;;;2.19;72.71
44351;BME280;62766;62.622;17.912;2022-12-18T12:45:13;100479.51;;;2.17;72.48
44351;BME280;62766;62.622;17.912;2022-12-18T12:47:43;100488.70;;;2.28;72.12
44351;BME280;62766;62.622;17.912;2022-12-18T12:50:18;100486.16;;;2.18;71.83
44351;BME280;62766;62.622;17.912;2022-12-18T12:52:49;100481.67;;;2.18;71.77
44351;BME280;62766;62.622;17.912;2022-12-18T12:55:22;100485.39;;;2.21;71.68
44351;BME280;62766;62.622;17.912;2022-12-18T12:57:57;100490.40;;;2.13;71.52
44351;BME280;62766;62.622;17.912;2022-12-18T13:00:31;100497.58;;;2.02;71.63
44351;BME280;62766;62.622;17.912;2022-12-18T13:03:12;100496.17;;;2.16;71.53
44351;BME280;62766;62.622;17.912;2022-12-18T13:05:48;100498.88;;;2.25;71.22
44351;BME280;62766;62.622;17.912;2022-12-18T13:08:24;100501.35;;;2.15;70.73
44351;BME280;62766;62.622;17.912;2022-12-18T13:10:54;100501.76;;;2.05;70.52